Time;durP1;ratioP1;P1;durP2;ratioP2;P2;SDS_P1;SDS_P2;PMS_P1;PMS_P2;Temp;Humidity;BMP_temperature;BMP_pressure;BME280_temperature;BME280_humidity;BME280_pressure;Samples;Min_cycle;Max_cycle;Signal;HPM_P1;HPM_P2
2021/06/11 00:00:12;;;;;;;1999.90;999.90;;;17.30;99.90;;;;;;4971624;28;20255;-77
2021/06/11 00:02:38;;;;;;;1999.90;999.90;;;17.30;99.90;;;;;;4969019;28;20175;-76
2021/06/11 00:05:05;;;;;;;1999.90;999.90;;;17.40;99.90;;;;;;4970428;28;20782;-77
2021/06/11 00:07:31;;;;;;;1999.90;999.90;;;17.40;99.90;;;;;;4969363;28;20731;-76
2021/06/11 00:09:56;;;;;;;1999.90;999.90;;;17.30;99.90;;;;;;4969051;28;20179;-76
2021/06/11 00:12:22;;;;;;;1999.90;999.90;;;17.30;99.90;;;;;;4968939;28;20693;-76
2021/06/11 00:14:48;;;;;;;1999.90;999.90;;;17.30;99.90;;;;;;4968822;28;20181;-77
2021/06/11 00:17:13;;;;;;;1999.90;999.90;;;17.30;99.90;;;;;;5035435;28;20715;-76
2021/06/11 00:19:39;;;;;;;1999.90;999.90;;;17.30;99.90;;;;;;4968769;28;20739;-76
2021/06/11 00:22:05;;;;;;;1999.90;999.90;;;17.10;99.90;;;;;;5036127;28;20271;-77
2021/06/11 00:24:32;;;;;;;1999.90;999.90;;;16.90;99.90;;;;;;4968532;28;20693;-76
2021/06/11 00:26:57;;;;;;;1999.90;999.90;;;16.90;99.90;;;;;;4968764;28;20218;-76
2021/06/11 00:29:23;;;;;;;1999.90;999.90;;;17.00;99.90;;;;;;4968808;28;20179;-76
2021/06/11 00:31:49;;;;;;;1999.90;999.90;;;17.00;99.90;;;;;;5035179;28;20202;-76
2021/06/11 00:34:14;;;;;;;1999.90;999.90;;;17.10;99.90;;;;;;4968616;28;20183;-77
2021/06/11 00:36:40;;;;;;;1999.90;999.90;;;17.10;99.90;;;;;;4968482;28;20269;-76
2021/06/11 00:39:06;;;;;;;1999.90;999.90;;;17.00;99.90;;;;;;4970066;28;20237;-77
2021/06/11 00:41:32;;;;;;;1999.90;999.90;;;17.00;99.90;;;;;;4968913;28;20226;-77
2021/06/11 00:43:58;;;;;;;1999.90;999.90;;;17.00;99.90;;;;;;5035148;28;20183;-75
2021/06/11 00:46:24;;;;;;;1999.90;999.90;;;17.00;99.90;;;;;;4968506;28;20207;-76
2021/06/11 00:48:49;;;;;;;1999.90;999.90;;;16.90;99.90;;;;;;4968584;28;20183;-77
2021/06/11 00:51:15;;;;;;;1999.90;999.90;;;16.80;99.90;;;;;;5035220;28;20183;-76
2021/06/11 00:53:41;;;;;;;1999.90;999.90;;;16.80;99.90;;;;;;4968574;28;20191;-76
2021/06/11 00:56:07;;;;;;;1999.90;999.90;;;16.80;99.90;;;;;;5034911;28;20232;-75
2021/06/11 00:58:32;;;;;;;1999.90;999.90;;;16.80;99.90;;;;;;4969165;28;20271;-76
2021/06/11 01:00:58;;;;;;;1999.90;999.90;;;16.90;99.90;;;;;;5036094;28;20172;-77
2021/06/11 01:03:24;;;;;;;1999.90;999.90;;;16.80;99.90;;;;;;4968367;28;20207;-76
2021/06/11 01:05:51;;;;;;;1999.90;999.90;;;16.80;99.90;;;;;;4968115;28;20289;-75
2021/06/11 01:08:18;;;;;;;1999.90;999.90;;;16.90;99.90;;;;;;4968279;28;20223;-77
2021/06/11 01:10:44;;;;;;;1999.90;999.90;;;16.80;99.90;;;;;;5035118;28;20191;-77
2021/06/11 01:13:14;;;;;;;1999.90;999.90;;;16.80;99.90;;;;;;4968222;28;20210;-77
2021/06/11 01:15:40;;;;;;;1999.90;999.90;;;16.70;99.90;;;;;;4968125;28;20232;-76
2021/06/11 01:18:06;;;;;;;1999.90;999.90;;;16.60;99.90;;;;;;5036968;28;20198;-77
2021/06/11 01:20:32;;;;;;;1999.90;999.90;;;16.60;99.90;;;;;;4971271;28;20183;-76
2021/06/11 01:23:21;;;;;;;1999.90;999.90;;;16.40;99.90;;;;;;4968280;28;20178;-76
2021/06/11 01:26:11;;;;;;;1999.90;999.90;;;16.30;99.90;;;;;;4983576;28;20227;-76
2021/06/11 01:28:37;;;;;;;1999.90;999.90;;;16.30;99.90;;;;;;4971480;28;20184;-77
2021/06/11 01:31:03;;;;;;;1999.90;999.90;;;16.10;99.90;;;;;;4971335;28;20845;-77
2021/06/11 01:33:32;;;;;;;1999.90;999.90;;;16.10;99.90;;;;;;5038324;28;20684;-76
2021/06/11 01:36:10;;;;;;;1999.90;999.90;;;16.10;99.90;;;;;;4972028;28;20201;-76
2021/06/11 01:38:43;;;;;;;1999.90;999.90;;;16.10;99.90;;;;;;4973957;28;20179;-76
2021/06/11 01:41:13;;;;;;;1999.90;999.90;;;16.20;99.90;;;;;;4971205;28;20181;-77
2021/06/11 01:43:39;;;;;;;1999.90;999.90;;;16.30;99.90;;;;;;5031976;28;20184;-77
2021/06/11 01:46:13;;;;;;;1999.90;999.90;;;16.30;99.90;;;;;;4972255;28;20192;-76
2021/06/11 01:48:41;;;;;;;1999.90;999.90;;;16.10;99.90;;;;;;4972515;28;20180;-76
2021/06/11 01:51:09;;;;;;;1999.90;999.90;;;16.10;99.90;;;;;;4973234;28;20523;-77
2021/06/11 01:53:37;;;;;;;1999.90;999.90;;;16.10;99.90;;;;;;4954869;28;20189;-77
2021/06/11 01:56:03;;;;;;;1999.90;999.90;;;16.10;99.90;;;;;;4974499;28;20274;-76
2021/06/11 01:58:30;;;;;;;1999.90;999.90;;;16.10;99.90;;;;;;4972240;28;20177;-77
2021/06/11 02:00:57;;;;;;;1999.90;999.90;;;16.10;99.90;;;;;;4971012;28;20183;-77
2021/06/11 02:03:24;;;;;;;1999.90;999.90;;;16.10;99.90;;;;;;4971889;28;20192;-77
2021/06/11 02:05:52;;;;;;;1999.90;999.90;;;16.10;99.90;;;;;;5037315;28;20189;-75
2021/06/11 02:08:19;;;;;;;1999.90;999.90;;;16.10;99.90;;;;;;4970397;28;20642;-77
2021/06/11 02:10:45;;;;;;;1999.90;999.90;;;16.10;99.90;;;;;;4970353;28;20186;-76
2021/06/11 02:13:11;;;;;;;1999.90;999.90;;;16.00;99.90;;;;;;4970205;28;20181;-76
2021/06/11 02:15:37;;;;;;;1999.90;999.90;;;16.00;99.90;;;;;;4971152;28;20222;-76
2021/06/11 02:18:04;;;;;;;1999.90;999.90;;;15.90;99.90;;;;;;5029578;28;20635;-76
2021/06/11 02:20:30;;;;;;;1999.90;999.90;;;15.80;99.90;;;;;;4957717;28;20185;-77
2021/06/11 02:22:56;;;;;;;1999.90;999.90;;;15.80;99.90;;;;;;4958995;28;20571;-78
2021/06/11 02:25:26;;;;;;;1999.90;999.90;;;15.80;99.90;;;;;;4955867;28;20185;-77
2021/06/11 02:27:55;;;;;;;1999.90;999.90;;;15.80;99.90;;;;;;4958002;28;20225;-76
2021/06/11 02:30:21;;;;;;;1999.90;999.90;;;15.90;99.90;;;;;;4958713;28;20747;-77
2021/06/11 02:32:47;;;;;;;1999.90;999.90;;;15.80;99.90;;;;;;4956530;28;20318;-76
2021/06/11 02:35:24;;;;;;;1999.90;999.90;;;15.70;99.90;;;;;;5021255;28;20215;-77
2021/06/11 02:37:51;;;;;;;1999.90;999.90;;;15.70;99.90;;;;;;4953106;28;20203;-77
2021/06/11 02:40:17;;;;;;;1999.90;999.90;;;15.70;99.90;;;;;;4952656;28;20672;-76
2021/06/11 02:42:46;;;;;;;1999.90;999.90;;;15.60;99.90;;;;;;5017308;28;20177;-77
2021/06/11 02:45:17;;;;;;;1999.90;999.90;;;15.60;99.90;;;;;;4955163;28;20177;-76
2021/06/11 02:48:01;;;;;;;1999.90;999.90;;;15.60;99.90;;;;;;4954499;28;20204;-76
2021/06/11 02:50:34;;;;;;;1999.90;999.90;;;15.60;99.90;;;;;;4955707;28;20169;-76
2021/06/11 02:53:02;;;;;;;1999.90;999.90;;;15.60;99.90;;;;;;4953245;28;20232;-76
2021/06/11 02:55:29;;;;;;;1999.90;999.90;;;15.60;99.90;;;;;;4953233;28;20225;-76
2021/06/11 02:58:03;;;;;;;1999.90;999.90;;;15.60;99.90;;;;;;4953374;28;20214;-76
2021/06/11 03:00:30;;;;;;;1999.90;999.90;;;15.60;99.90;;;;;;5032451;28;20182;-77
2021/06/11 03:03:15;;;;;;;1999.90;999.90;;;15.60;99.90;;;;;;5030954;28;20655;-77
2021/06/11 03:05:43;;;;;;;1999.90;999.90;;;15.60;99.90;;;;;;5000537;28;20212;-76
2021/06/11 03:08:12;;;;;;;1999.90;999.90;;;15.50;99.90;;;;;;4968021;28;20203;-77
2021/06/11 03:10:40;;;;;;;1999.90;999.90;;;15.50;99.90;;;;;;4968665;28;20173;-76
2021/06/11 03:13:07;;;;;;;1999.90;999.90;;;15.40;99.90;;;;;;4971164;28;20173;-76
2021/06/11 03:15:35;;;;;;;1999.90;999.90;;;15.40;99.90;;;;;;4971056;28;20665;-76
2021/06/11 03:18:06;;;;;;;1999.90;999.90;;;15.40;99.90;;;;;;4970255;28;20201;-77
2021/06/11 03:20:39;;;;;;;1999.90;999.90;;;15.40;99.90;;;;;;4970949;28;20212;-76
2021/06/11 03:23:15;;;;;;;1999.90;999.90;;;15.30;99.90;;;;;;4969601;28;20183;-77
2021/06/11 03:25:54;;;;;;;1999.90;999.90;;;15.30;99.90;;;;;;4969610;28;20187;-76
2021/06/11 03:28:42;;;;;;;1999.90;999.90;;;15.20;99.90;;;;;;5036704;28;20287;-77
2021/06/11 03:31:12;;;;;;;1999.90;999.90;;;15.30;99.90;;;;;;4969407;28;20266;-76
2021/06/11 03:33:40;;;;;;;1999.90;999.90;;;15.20;99.90;;;;;;4970264;28;20184;-76
2021/06/11 03:36:43;;;;;;;1999.90;999.90;;;15.20;99.90;;;;;;5036818;28;20283;-77
2021/06/11 03:39:35;;;;;;;1999.90;999.90;;;15.20;99.90;;;;;;4991738;28;20192;-76
2021/06/11 03:42:03;;;;;;;1999.90;999.90;;;15.20;99.90;;;;;;4958904;28;20195;-76
2021/06/11 03:44:30;;;;;;;1999.90;999.90;;;15.20;99.90;;;;;;4969294;28;20181;-76
2021/06/11 03:46:58;;;;;;;1999.90;999.90;;;15.10;99.90;;;;;;5033852;28;20337;-77
2021/06/11 03:49:26;;;;;;;1999.90;999.90;;;15.10;99.90;;;;;;4973736;28;20731;-77
2021/06/11 03:51:53;;;;;;;1999.90;999.90;;;15.10;99.90;;;;;;4977985;28;20184;-76
2021/06/11 03:54:21;;;;;;;1999.90;999.90;;;15.10;99.90;;;;;;4970500;28;20208;-76
2021/06/11 03:56:50;;;;;;;1999.90;999.90;;;15.10;99.90;;;;;;4982331;28;20203;-77
2021/06/11 03:59:20;;;;;;;1999.90;999.90;;;15.10;99.90;;;;;;4970458;28;20234;-76
2021/06/11 04:01:51;;;;;;;1999.90;999.90;;;15.10;99.90;;;;;;5028684;28;20727;-77
2021/06/11 04:04:17;;;;;;;1999.90;999.90;;;15.10;99.90;;;;;;4964601;28;20181;-76
2021/06/11 04:06:57;;;;;;;1999.90;999.90;;;15.10;99.90;;;;;;4960700;28;20208;-76
2021/06/11 04:09:28;;;;;;;1999.90;999.90;;;15.10;99.90;;;;;;5038225;28;20181;-77
2021/06/11 04:12:00;;;;;;;1999.90;999.90;;;15.20;99.90;;;;;;4967943;28;20184;-75
2021/06/11 04:14:34;;;;;;;1999.90;999.90;;;15.20;99.90;;;;;;4968684;28;20184;-75
2021/06/11 04:17:01;;;;;;;1999.90;999.90;;;15.30;99.90;;;;;;5034674;28;20204;-77
2021/06/11 04:19:45;;;;;;;1999.90;999.90;;;15.30;99.90;;;;;;4968819;28;20178;-76
2021/06/11 04:22:13;;;;;;;1999.90;999.90;;;15.30;99.90;;;;;;4969008;28;20690;-76
2021/06/11 04:24:43;;;;;;;1999.90;999.90;;;15.40;99.90;;;;;;4968731;28;20185;-77
2021/06/11 04:27:10;;;;;;;1999.90;999.90;;;15.40;99.90;;;;;;4969240;28;20220;-76
2021/06/11 04:29:37;;;;;;;1999.90;999.90;;;15.40;99.90;;;;;;5036739;28;20275;-77
2021/06/11 04:32:03;;;;;;;1999.90;999.90;;;15.50;99.90;;;;;;4969649;28;20188;-76
2021/06/11 04:34:29;;;;;;;1999.90;999.90;;;15.50;99.90;;;;;;4969909;28;20184;-77
2021/06/11 04:36:55;;;;;;;1999.90;999.90;;;15.60;99.90;;;;;;4964083;28;20221;-76
2021/06/11 04:39:21;;;;;;;1999.90;999.90;;;15.60;99.90;;;;;;4969916;28;20189;-77
2021/06/11 04:41:47;;;;;;;1999.90;999.90;;;15.60;99.90;;;;;;4960963;28;20275;-76
2021/06/11 04:44:13;;;;;;;1999.90;999.90;;;15.50;99.90;;;;;;4970881;28;20221;-76
2021/06/11 04:46:40;;;;;;;1999.90;999.90;;;15.50;99.90;;;;;;4970618;28;20236;-76
2021/06/11 04:49:06;;;;;;;1999.90;999.90;;;15.70;99.90;;;;;;4951861;28;20197;-76
2021/06/11 04:51:32;;;;;;;1999.90;999.90;;;15.80;99.90;;;;;;4962979;28;20247;-77
2021/06/11 04:53:58;;;;;;;1999.90;999.90;;;15.90;99.90;;;;;;5037455;28;20559;-75
2021/06/11 04:56:24;;;;;;;1999.90;999.90;;;16.10;99.90;;;;;;4970698;28;20317;-77
2021/06/11 04:58:51;;;;;;;1999.90;999.90;;;16.10;99.90;;;;;;4971951;28;20549;-76
2021/06/11 05:01:18;;;;;;;1999.90;999.90;;;16.00;99.90;;;;;;5038012;28;20550;-76
2021/06/11 05:03:43;;;;;;;1999.90;999.90;;;16.00;99.90;;;;;;4973527;28;20246;-76
2021/06/11 05:06:09;;;;;;;1999.90;999.90;;;16.10;99.90;;;;;;4972724;28;20202;-76
2021/06/11 05:08:36;;;;;;;1999.90;999.90;;;16.20;99.90;;;;;;4973752;28;20826;-77
2021/06/11 05:11:02;;;;;;;1999.90;999.90;;;16.30;99.90;;;;;;4973148;28;20268;-76
2021/06/11 05:13:29;;;;;;;1999.90;999.90;;;16.40;99.90;;;;;;4961966;28;20185;-77
2021/06/11 05:15:54;;;;;;;1999.90;999.90;;;16.60;99.90;;;;;;4953172;28;20327;-77
2021/06/11 05:18:24;;;;;;;1999.90;999.90;;;16.70;99.90;;;;;;5024110;28;20270;-76
2021/06/11 05:20:50;;;;;;;1999.90;999.90;;;16.80;99.90;;;;;;5005893;28;20184;-76
2021/06/11 05:23:15;;;;;;;1999.90;999.90;;;16.90;99.90;;;;;;5021819;28;20324;-77
2021/06/11 05:25:41;;;;;;;1999.90;999.90;;;16.90;99.90;;;;;;4954186;28;20192;-76
2021/06/11 05:28:06;;;;;;;1999.90;999.90;;;16.90;99.90;;;;;;4955981;28;20214;-76
2021/06/11 05:30:32;;;;;;;1999.90;999.90;;;17.00;99.90;;;;;;4954721;28;20700;-75
2021/06/11 05:32:58;;;;;;;1999.90;999.90;;;17.10;99.90;;;;;;4957604;28;20542;-77
2021/06/11 05:35:24;;;;;;;1999.90;999.90;;;17.10;99.90;;;;;;4973565;28;20208;-77
2021/06/11 05:37:50;;;;;;;1999.90;999.90;;;17.20;99.90;;;;;;4967822;28;20282;-76
2021/06/11 05:40:16;;;;;;;1999.90;999.90;;;17.30;99.90;;;;;;4973483;28;20182;-77
2021/06/11 05:42:42;;;;;;;1999.90;999.90;;;17.20;99.90;;;;;;5043096;28;20544;-76
2021/06/11 05:45:08;;;;;;;1999.90;999.90;;;17.20;99.90;;;;;;4973441;28;20308;-77
2021/06/11 05:47:43;;;;;;;1999.90;999.90;;;17.30;99.90;;;;;;4973349;28;20201;-77
2021/06/11 05:50:09;;;;;;;1999.90;999.90;;;17.40;99.90;;;;;;4972661;28;20217;-77
2021/06/11 05:52:35;;;;;;;1999.90;999.90;;;17.40;99.90;;;;;;5029109;28;20205;-77
2021/06/11 05:55:03;;;;;;;1999.90;999.90;;;17.50;99.90;;;;;;4952236;28;20192;-77
2021/06/11 05:57:28;;;;;;;1999.90;999.90;;;17.60;99.90;;;;;;5027656;28;20195;-77
2021/06/11 05:59:55;;;;;;;1999.90;999.90;;;17.70;99.90;;;;;;4972353;28;20603;-76
2021/06/11 06:02:22;;;;;;;1999.90;999.90;;;17.80;99.90;;;;;;4960913;28;20188;-77
2021/06/11 06:04:48;;;;;;;1999.90;999.90;;;17.90;99.90;;;;;;4973267;28;20184;-77
2021/06/11 06:07:13;;;;;;;1999.90;999.90;;;17.90;99.90;;;;;;4972935;28;20211;-76
2021/06/11 06:09:40;;;;;;;1999.90;999.90;;;17.90;99.90;;;;;;5039573;28;20180;-76
2021/06/11 06:12:06;;;;;;;1999.90;999.90;;;17.90;99.90;;;;;;4972688;28;20183;-76
2021/06/11 06:14:33;;;;;;;1999.90;999.90;;;18.10;99.90;;;;;;5039705;28;20180;-77
2021/06/11 06:16:58;;;;;;;1999.90;999.90;;;18.20;99.90;;;;;;4973012;28;20216;-77
2021/06/11 06:19:24;;;;;;;1999.90;999.90;;;18.10;99.90;;;;;;4972912;28;20180;-77
2021/06/11 06:21:51;;;;;;;1999.90;999.90;;;18.30;99.90;;;;;;4972804;28;20211;-76
2021/06/11 06:24:17;;;;;;;1999.90;999.90;;;18.40;99.90;;;;;;4972734;28;20176;-77
2021/06/11 06:26:42;;;;;;;1999.90;999.90;;;18.50;99.90;;;;;;5040014;28;20281;-77
2021/06/11 06:29:08;;;;;;;1999.90;999.90;;;18.60;99.90;;;;;;4972682;28;20177;-77
2021/06/11 06:31:33;;;;;;;1999.90;999.90;;;18.70;99.90;;;;;;5039022;28;20206;-77
2021/06/11 06:33:59;;;;;;;1999.90;999.90;;;18.70;99.90;;;;;;4972700;28;20180;-77
2021/06/11 06:36:25;;;;;;;1999.90;999.90;;;18.70;99.90;;;;;;4972329;28;20234;-77
2021/06/11 06:38:56;;;;;;;1999.90;999.90;;;18.80;99.90;;;;;;4972583;28;20200;-76
2021/06/11 06:41:22;;;;;;;1999.90;999.90;;;18.80;99.90;;;;;;4972611;28;20188;-77
2021/06/11 06:43:48;;;;;;;1999.90;999.90;;;18.80;99.90;;;;;;4972468;28;20172;-77
2021/06/11 06:46:21;;;;;;;1999.90;999.90;;;18.80;99.90;;;;;;4972046;28;20204;-77
2021/06/11 06:48:51;;;;;;;1999.90;999.90;;;18.80;99.90;;;;;;4970334;28;20197;-76
2021/06/11 06:51:18;;;;;;;1999.90;999.90;;;19.00;99.90;;;;;;4960751;28;20189;-76
2021/06/11 06:53:44;;;;;;;1999.90;999.90;;;19.10;99.90;;;;;;4971044;28;20204;-76
2021/06/11 06:56:10;;;;;;;1999.90;999.90;;;19.20;99.90;;;;;;4972031;28;20290;-76
2021/06/11 06:58:36;;;;;;;1999.90;999.90;;;19.20;99.90;;;;;;5038856;28;20177;-77
2021/06/11 07:01:03;;;;;;;1999.90;999.90;;;19.30;99.90;;;;;;4972320;28;20263;-76
2021/06/11 07:03:29;;;;;;;1999.90;999.90;;;19.00;99.90;;;;;;4971756;28;20211;-76
2021/06/11 07:05:54;;;;;;;1999.90;999.90;;;19.00;99.90;;;;;;4972041;28;20208;-76
2021/06/11 07:08:20;;;;;;;1999.90;999.90;;;19.10;99.90;;;;;;5041564;28;20181;-75
2021/06/11 07:10:46;;;;;;;1999.90;999.90;;;19.10;99.90;;;;;;4971981;28;20192;-76
2021/06/11 07:13:13;;;;;;;1999.90;999.90;;;19.40;99.90;;;;;;5044092;28;20180;-76
2021/06/11 07:15:38;;;;;;;1999.90;999.90;;;19.50;99.90;;;;;;4978391;28;20204;-77
2021/06/11 07:18:04;;;;;;;1999.90;999.90;;;19.60;99.90;;;;;;4957976;28;20729;-77
2021/06/11 07:20:30;;;;;;;1999.90;999.90;;;19.70;99.90;;;;;;4966875;28;20305;-76
2021/06/11 07:22:56;;;;;;;1999.90;999.90;;;19.80;99.90;;;;;;5029045;28;20260;-77
2021/06/11 07:25:21;;;;;;;1999.90;999.90;;;19.90;99.90;;;;;;4971433;28;20196;-76
2021/06/11 07:27:47;;;;;;;1999.90;999.90;;;19.90;99.90;;;;;;4970835;28;20220;-77
2021/06/11 07:30:13;;;;;;;1999.90;999.90;;;20.00;99.90;;;;;;4970908;28;20180;-77
2021/06/11 07:32:43;;;;;;;1999.90;999.90;;;20.10;99.90;;;;;;4962889;28;20168;-83
2021/06/11 07:35:13;;;;;;;1999.90;999.90;;;20.30;99.90;;;;;;5042814;28;20200;-83
2021/06/11 07:37:40;;;;;;;1999.90;999.90;;;20.40;99.90;;;;;;4973495;28;20210;-83
2021/06/11 07:40:07;;;;;;;1999.90;999.90;;;20.50;99.90;;;;;;4973921;28;20173;-83
2021/06/11 07:42:33;;;;;;;1999.90;999.90;;;20.60;99.90;;;;;;5040928;28;20195;-82
2021/06/11 07:44:59;;;;;;;1999.90;999.90;;;20.70;99.90;;;;;;4974357;28;20652;-83
2021/06/11 07:47:24;;;;;;;1999.90;999.90;;;20.70;99.90;;;;;;4974357;28;20201;-82
2021/06/11 07:49:50;;;;;;;1999.90;999.90;;;20.70;99.90;;;;;;5041616;28;20259;-83
2021/06/11 07:52:16;;;;;;;1999.90;999.90;;;20.80;99.90;;;;;;5042221;28;20176;-82
2021/06/11 07:54:41;;;;;;;1999.90;999.90;;;20.90;99.90;;;;;;4974109;28;20177;-83
2021/06/11 07:57:07;;;;;;;1999.90;999.90;;;21.10;99.90;;;;;;4974268;28;20289;-83
2021/06/11 07:59:33;;;;;;;1999.90;999.90;;;21.20;99.90;;;;;;5040665;28;20198;-83
2021/06/11 08:01:59;;;;;;;1999.90;999.90;;;21.30;99.90;;;;;;4974244;28;20251;-83
2021/06/11 08:04:26;;;;;;;1999.90;999.90;;;21.40;99.90;;;;;;5041199;28;20178;-83
2021/06/11 08:06:51;;;;;;;1999.90;999.90;;;21.40;99.90;;;;;;4975039;28;20215;-84
2021/06/11 08:09:17;;;;;;;1999.90;999.90;;;21.30;99.90;;;;;;4975311;28;20181;-83
2021/06/11 08:11:43;;;;;;;1999.90;999.90;;;21.30;99.90;;;;;;5041625;28;20184;-83
2021/06/11 08:14:08;;;;;;;1999.90;999.90;;;21.50;99.90;;;;;;4975164;28;20177;-83
2021/06/11 08:16:34;;;;;;;1999.90;999.90;;;21.40;99.90;;;;;;4974604;28;20261;-83
2021/06/11 08:19:00;;;;;;;1999.90;999.90;;;21.50;99.90;;;;;;4974562;28;20176;-80
2021/06/11 08:21:25;;;;;;;1999.90;999.90;;;21.70;99.90;;;;;;4973709;28;20181;-82
2021/06/11 08:23:51;;;;;;;1999.90;999.90;;;21.90;99.90;;;;;;5040157;28;20177;-83
2021/06/11 08:26:17;;;;;;;1999.90;999.90;;;21.90;99.90;;;;;;4973918;28;20220;-83
2021/06/11 08:28:42;;;;;;;1999.90;999.90;;;21.90;99.90;;;;;;5001523;23;20219;-80
2021/06/11 08:31:08;;;;;;;1999.90;999.90;;;21.90;99.90;;;;;;4996282;28;20179;-80
2021/06/11 08:33:41;;;;;;;1999.90;999.90;;;21.90;99.90;;;;;;4993754;28;20183;-76
2021/06/11 08:36:33;;;;;;;1999.90;999.90;;;21.90;99.90;;;;;;4976764;28;20207;-75
2021/06/11 08:38:59;;;;;;;1999.90;999.90;;;21.90;99.90;;;;;;4976625;28;20192;-78
2021/06/11 08:41:27;;;;;;;1999.90;999.90;;;22.00;99.90;;;;;;4994198;28;20551;-76
2021/06/11 08:43:56;;;;;;;1999.90;999.90;;;21.90;99.90;;;;;;4976347;28;20254;-76
2021/06/11 08:46:23;;;;;;;1999.90;999.90;;;22.10;99.90;;;;;;4994037;28;20184;-76
2021/06/11 08:48:52;;;;;;;1999.90;999.90;;;22.30;99.90;;;;;;4976454;28;20199;-78
2021/06/11 08:51:18;;;;;;;1999.90;999.90;;;22.40;99.90;;;;;;4993570;28;20270;-76
2021/06/11 08:53:45;;;;;;;1999.90;999.90;;;22.30;99.90;;;;;;4976606;28;20659;-77
2021/06/11 08:56:11;;;;;;;1999.90;999.90;;;22.40;99.90;;;;;;4976864;28;20191;-79
2021/06/11 08:58:42;;;;;;;1999.90;999.90;;;22.40;99.90;;;;;;4993722;28;20195;-78
2021/06/11 09:01:11;;;;;;;1999.90;999.90;;;22.50;99.90;;;;;;4976076;28;20184;-77
2021/06/11 09:03:48;;;;;;;1999.90;999.90;;;22.70;99.90;;;;;;4985216;28;20581;-76
2021/06/11 09:06:16;;;;;;;1999.90;999.90;;;22.70;99.90;;;;;;4993490;28;20179;-78
2021/06/11 09:08:51;;;;;;;1999.90;999.90;;;22.90;99.90;;;;;;4975648;28;20220;-77
2021/06/11 09:11:23;;;;;;;1999.90;999.90;;;23.30;99.90;;;;;;4976489;28;20194;-76
2021/06/11 09:13:59;;;;;;;1999.90;999.90;;;23.50;99.90;;;;;;4993527;28;20179;-77
2021/06/11 09:16:29;;;;;;;1999.90;999.90;;;23.50;99.90;;;;;;4975899;28;20210;-78
2021/06/11 09:19:05;;;;;;;1999.90;999.90;;;23.60;99.90;;;;;;4993387;28;20184;-77
2021/06/11 09:21:36;;;;;;;1999.90;999.90;;;23.70;99.90;;;;;;4976388;28;20673;-77
2021/06/11 09:27:01;;;;;;;1999.90;999.90;;;23.80;99.90;;;;;;4993281;28;20271;-77
2021/06/11 09:29:33;;;;;;;1999.90;999.90;;;23.80;99.90;;;;;;4975685;28;20223;-78
2021/06/11 09:32:26;;;;;;;1999.90;999.90;;;23.90;99.90;;;;;;4993389;28;20186;-74
2021/06/11 09:35:06;;;;;;;1999.90;999.90;;;24.00;99.90;;;;;;4963464;28;20199;-74
2021/06/11 09:37:34;;;;;;;1999.90;999.90;;;24.20;99.90;;;;;;4963703;28;20517;-77
2021/06/11 09:40:10;;;;;;;1999.90;999.90;;;24.30;99.90;;;;;;4978130;28;20272;-76
2021/06/11 09:42:43;;;;;;;1999.90;999.90;;;24.40;99.90;;;;;;4986033;28;20175;-76
2021/06/11 09:45:12;;;;;;;1999.90;999.90;;;24.50;99.90;;;;;;4976835;28;20176;-76
2021/06/11 09:47:48;;;;;;;1999.90;999.90;;;24.60;99.90;;;;;;4970632;28;20183;-77
2021/06/11 09:50:16;;;;;;;1999.90;999.90;;;24.40;99.90;;;;;;4976925;28;20203;-73
2021/06/11 09:52:55;;;;;;;1999.90;999.90;;;24.30;99.90;;;;;;4963254;28;20176;-77
2021/06/11 09:55:25;;;;;;;1999.90;999.90;;;24.50;99.90;;;;;;5037938;28;20191;-76
2021/06/11 09:58:11;;;;;;;1999.90;999.90;;;24.50;99.90;;;;;;5040977;28;20230;-77
2021/06/11 10:00:59;;;;;;;1999.90;999.90;;;24.60;99.90;;;;;;4977813;28;20189;-76
2021/06/11 10:03:34;;;;;;;1999.90;999.90;;;24.70;99.90;;;;;;4972440;28;20963;-76
2021/06/11 10:06:19;;;;;;;1999.90;999.90;;;24.90;99.90;;;;;;4968827;28;20703;-76
2021/06/11 10:08:46;;;;;;;1999.90;999.90;;;25.00;99.90;;;;;;4971584;28;20706;-76
2021/06/11 10:11:20;;;;;;;1999.90;999.90;;;25.20;99.90;;;;;;4964976;28;20861;-77
2021/06/11 10:13:47;;;;;;;1999.90;999.90;;;25.30;99.90;;;;;;4956928;28;20690;-76
2021/06/11 10:16:14;;;;;;;1999.90;999.90;;;25.30;99.90;;;;;;4971446;28;20212;-78
2021/06/11 10:18:40;;;;;;;1999.90;999.90;;;25.10;99.90;;;;;;4972165;28;20198;-78
2021/06/11 10:21:08;;;;;;;1999.90;999.90;;;25.10;99.90;;;;;;4958367;28;20272;-77
2021/06/11 10:23:35;;;;;;;1999.90;999.90;;;25.40;99.90;;;;;;4972318;28;20215;-78
2021/06/11 10:26:03;;;;;;;1999.90;999.90;;;25.40;99.90;;;;;;4973839;28;20541;-78
2021/06/11 10:28:51;;;;;;;1999.90;999.90;;;25.40;99.90;;;;;;4974439;28;20217;-78
2021/06/11 10:31:21;;;;;;;1999.90;999.90;;;25.50;99.90;;;;;;4976570;28;20200;-78
2021/06/11 10:33:46;;;;;;;1999.90;999.90;;;25.70;99.90;;;;;;4979652;28;20188;-76
2021/06/11 10:36:30;;;;;;;1999.90;999.90;;;25.60;99.90;;;;;;4968935;28;20203;-76
2021/06/11 10:39:01;;;;;;;1999.90;999.90;;;25.60;99.90;;;;;;4978007;28;20192;-78
2021/06/11 10:41:48;;;;;;;1999.90;999.90;;;25.80;99.90;;;;;;4943707;28;20185;-76
2021/06/11 10:44:32;;;;;;;1999.90;999.90;;;25.90;99.90;;;;;;4936153;28;20185;-75
2021/06/11 10:47:34;;;;;;;1999.90;999.90;;;26.00;99.90;;;;;;4972265;28;20203;-74
2021/06/11 10:50:01;;;;;;;1999.90;999.90;;;26.10;99.90;;;;;;5003791;28;20210;-77
2021/06/11 10:52:46;;;;;;;1999.90;999.90;;;26.00;99.90;;;;;;4955210;28;20198;-77
2021/06/11 10:55:14;;;;;;;1999.90;999.90;;;25.80;99.90;;;;;;4970264;28;20333;-78
2021/06/11 10:57:54;;;;;;;1999.90;999.90;;;25.70;99.90;;;;;;4976481;28;20897;-78
2021/06/11 11:00:23;;;;;;;1999.90;999.90;;;25.80;99.90;;;;;;4974784;28;20562;-77
2021/06/11 11:02:50;;;;;;;1999.90;999.90;;;25.80;99.90;;;;;;5037444;28;20226;-77
2021/06/11 11:05:36;;;;;;;1999.90;999.90;;;25.80;99.90;;;;;;4983286;28;20272;-78
2021/06/11 11:08:09;;;;;;;1999.90;999.90;;;25.70;99.90;;;;;;4977788;28;20177;-76
2021/06/11 11:10:54;;;;;;;1999.90;999.90;;;25.60;99.90;;;;;;4987429;28;20204;-76
2021/06/11 11:13:26;;;;;;;1999.90;999.90;;;25.50;99.90;;;;;;4986195;28;20169;-77
2021/06/11 11:15:55;;;;;;;1999.90;999.90;;;25.50;99.90;;;;;;4987253;28;20338;-77
2021/06/11 11:18:32;;;;;;;1999.90;999.90;;;25.30;99.90;;;;;;4973062;28;20572;-77
2021/06/11 11:21:00;;;;;;;1999.90;999.90;;;25.20;99.90;;;;;;4970533;28;20247;-75
2021/06/11 11:23:27;;;;;;;1999.90;999.90;;;25.10;99.90;;;;;;4959377;28;20667;-75
2021/06/11 11:25:53;;;;;;;1999.90;999.90;;;24.80;99.90;;;;;;4985180;28;20266;-76
2021/06/11 11:28:19;;;;;;;1999.90;999.90;;;24.40;99.90;;;;;;4975943;28;20314;-75
2021/06/11 11:30:48;;;;;;;1999.90;999.90;;;24.20;99.90;;;;;;4979506;28;20267;-77
2021/06/11 11:33:16;;;;;;;1999.90;999.90;;;24.10;99.90;;;;;;4954350;28;20655;-75
2021/06/11 11:35:46;;;;;;;1999.90;999.90;;;24.20;99.90;;;;;;4953287;28;20212;-76
2021/06/11 11:38:13;;;;;;;1999.90;999.90;;;24.20;99.90;;;;;;4958029;28;20270;-77
2021/06/11 11:40:42;;;;;;;1999.90;999.90;;;24.20;99.90;;;;;;4965388;28;20180;-77
2021/06/11 11:43:08;;;;;;;1999.90;999.90;;;24.20;99.90;;;;;;4961080;28;20176;-76
2021/06/11 11:45:34;;;;;;;1999.90;999.90;;;24.20;99.90;;;;;;4983351;28;20535;-77
2021/06/11 11:48:04;;;;;;;1999.90;999.90;;;24.20;99.90;;;;;;4975673;28;20216;-76
2021/06/11 11:50:32;;;;;;;1999.90;999.90;;;24.20;99.90;;;;;;4964654;28;20560;-76
2021/06/11 11:52:58;;;;;;;1999.90;999.90;;;24.10;99.90;;;;;;4962969;28;20208;-77
2021/06/11 11:55:25;;;;;;;1999.90;999.90;;;24.00;99.90;;;;;;4975373;28;20208;-75
2021/06/11 11:57:50;;;;;;;1999.90;999.90;;;24.00;99.90;;;;;;4949458;28;20734;-75
2021/06/11 12:00:17;;;;;;;1999.90;999.90;;;24.00;99.90;;;;;;5036434;28;20208;-77
2021/06/11 12:02:44;;;;;;;1999.90;999.90;;;23.90;99.90;;;;;;4970342;28;20192;-77
2021/06/11 12:05:11;;;;;;;1999.90;999.90;;;23.90;99.90;;;;;;4968945;28;20299;-76
2021/06/11 12:07:36;;;;;;;1999.90;999.90;;;24.00;99.90;;;;;;4975359;28;20230;-77
2021/06/11 12:10:04;;;;;;;1999.90;999.90;;;24.00;99.90;;;;;;4958129;28;20683;-77